createdAt,value
2022-09-27T00:00:30.647Z,98651.41
2022-09-27T00:03:33.201Z,98645.94
2022-09-27T00:06:40.586Z,98642.91
2022-09-27T00:09:44.712Z,98637.75
2022-09-27T00:12:48.148Z,98636.50
2022-09-27T00:15:57.375Z,98629.38
2022-09-27T00:19:01.060Z,98633.00
2022-09-27T00:22:03.741Z,98620.44
2022-09-27T00:25:08.210Z,98614.91
2022-09-27T00:28:10.941Z,98614.19
2022-09-27T00:31:21.258Z,98616.00
2022-09-27T00:34:25.510Z,98616.13
2022-09-27T00:37:28.044Z,98605.13
2022-09-27T00:40:31.875Z,98601.91
2022-09-27T00:43:46.882Z,98596.47
2022-09-27T00:46:52.645Z,98600.94
2022-09-27T00:49:58.339Z,98594.81
2022-09-27T00:53:09.987Z,98590.50
2022-09-27T00:56:18.597Z,98585.34
2022-09-27T00:59:27.727Z,98586.75
2022-09-27T01:02:30.915Z,98581.47
2022-09-27T01:05:33.589Z,98578.09
2022-09-27T01:08:36.418Z,98575.88
2022-09-27T01:11:45.141Z,98579.34
2022-09-27T01:15:06.398Z,98571.13
2022-09-27T01:18:29.360Z,98564.31
2022-09-27T01:21:52.376Z,98567.38
2022-09-27T01:25:18.938Z,98561.25
2022-09-27T01:28:29.976Z,98554.00
2022-09-27T01:31:42.396Z,98552.31
2022-09-27T01:34:50.045Z,98550.09
2022-09-27T01:38:03.139Z,98546.03
2022-09-27T01:41:13.987Z,98547.31
2022-09-27T01:44:25.056Z,98546.47
2022-09-27T01:47:39.380Z,98536.97
2022-09-27T01:50:45.567Z,98538.09
2022-09-27T01:53:51.733Z,98533.63
2022-09-27T01:56:58.358Z,98526.66
2022-09-27T02:00:04.865Z,98523.91
2022-09-27T02:03:14.703Z,98521.94
2022-09-27T02:06:21.224Z,98509.53
2022-09-27T02:09:29.708Z,98502.72
2022-09-27T02:12:41.160Z,98502.31
2022-09-27T02:15:53.411Z,98502.44
2022-09-27T02:19:10.027Z,98503.00
2022-09-27T02:22:17.964Z,98494.22
2022-09-27T02:25:25.359Z,98497.53
2022-09-27T02:28:32.032Z,98494.47
2022-09-27T02:31:34.706Z,98484.44
2022-09-27T02:34:40.158Z,98490.41
2022-09-27T02:37:42.789Z,98477.75
2022-09-27T02:40:47.397Z,98484.31
2022-09-27T02:43:53.195Z,98470.63
2022-09-27T02:47:08.921Z,98467.44
2022-09-27T02:50:33.129Z,98459.38
2022-09-27T02:53:46.215Z,98463.13
2022-09-27T02:56:59.181Z,98459.78
2022-09-27T03:00:07.279Z,98453.66
2022-09-27T03:03:16.034Z,98452.53
2022-09-27T03:06:23.303Z,98450.03
2022-09-27T03:09:30.320Z,98438.22
2022-09-27T03:12:34.605Z,98450.88
2022-09-27T03:15:37.053Z,98441.13
2022-09-27T03:18:39.611Z,98449.66
2022-09-27T03:21:43.382Z,98439.31
2022-09-27T03:24:46.007Z,98437.91
2022-09-27T03:27:49.355Z,98436.38
2022-09-27T03:30:51.860Z,98431.22
2022-09-27T03:33:54.447Z,98424.78
2022-09-27T03:36:58.342Z,98415.31
2022-09-27T03:40:00.807Z,98407.50
2022-09-27T03:43:03.879Z,98414.59
2022-09-27T03:46:06.677Z,98405.28
2022-09-27T03:49:09.238Z,98400.28
2022-09-27T03:52:13.133Z,98400.44
2022-09-27T03:55:15.815Z,98395.41
2022-09-27T03:58:18.256Z,98399.72
2022-09-27T04:01:21.201Z,98392.91
2022-09-27T04:04:23.758Z,98402.66
2022-09-27T04:07:27.516Z,98389.97
2022-09-27T04:10:29.991Z,98378.84
2022-09-27T04:13:34.157Z,98384.13
2022-09-27T04:16:36.715Z,98385.25
2022-09-27T04:19:39.980Z,98391.00
2022-09-27T04:22:45.488Z,98388.19
2022-09-27T04:25:48.050Z,98383.16
2022-09-27T04:28:54.765Z,98387.06
2022-09-27T04:31:57.404Z,98381.34
2022-09-27T04:35:17.786Z,98377.88
2022-09-27T04:38:24.073Z,98381.09
2022-09-27T04:41:28.343Z,98380.16
2022-09-27T04:44:30.783Z,98378.72
2022-09-27T04:47:34.144Z,98384.03
2022-09-27T04:50:36.762Z,98376.81
2022-09-27T04:53:40.787Z,98374.72
2022-09-27T04:56:43.409Z,98381.69
2022-09-27T04:59:45.874Z,98375.28
2022-09-27T05:02:48.667Z,98378.34
2022-09-27T05:05:51.363Z,98378.63
2022-09-27T05:08:55.532Z,98379.19
2022-09-27T05:11:58.043Z,98373.06
2022-09-27T05:15:00.623Z,98370.81
2022-09-27T05:18:03.111Z,98372.78
2022-09-27T05:21:05.952Z,98369.31
2022-09-27T05:24:09.731Z,98372.09
2022-09-27T05:27:18.494Z,98365.81
2022-09-27T05:30:21.013Z,98368.47
2022-09-27T05:33:23.489Z,98369.72
2022-09-27T05:36:25.960Z,98364.41
2022-09-27T05:39:29.872Z,98369.69
2022-09-27T05:42:32.460Z,98370.69
2022-09-27T05:45:34.966Z,98369.28
2022-09-27T05:48:38.338Z,98365.09
2022-09-27T05:51:41.207Z,98377.50
2022-09-27T05:54:45.485Z,98358.41
2022-09-27T05:57:58.529Z,98362.97
2022-09-27T06:01:01.258Z,98369.81
2022-09-27T06:04:04.792Z,98373.41
2022-09-27T06:07:07.241Z,98373.97
2022-09-27T06:10:11.124Z,98374.66
2022-09-27T06:13:16.212Z,98378.44
2022-09-27T06:16:18.802Z,98375.38
2022-09-27T06:19:21.399Z,98377.34
2022-09-27T06:22:24.609Z,98369.53
2022-09-27T06:25:28.651Z,98374.97
2022-09-27T06:28:33.504Z,98378.00
2022-09-27T06:31:36.164Z,98375.06
2022-09-27T06:34:38.657Z,98377.00
2022-09-27T06:37:41.159Z,98379.06
2022-09-27T06:40:46.403Z,98382.56
2022-09-27T06:43:49.488Z,98380.69
2022-09-27T06:46:52.852Z,98380.41
2022-09-27T06:49:58.329Z,98383.47
2022-09-27T06:53:00.887Z,98372.03
2022-09-27T06:56:07.703Z,98375.06
2022-09-27T06:59:27.905Z,98381.34
2022-09-27T07:02:30.413Z,98385.22
2022-09-27T07:05:32.928Z,98379.22
2022-09-27T07:08:35.927Z,98387.31
2022-09-27T07:11:40.228Z,98382.00
2022-09-27T07:14:42.814Z,98386.16
2022-09-27T07:17:45.277Z,98390.03
2022-09-27T07:20:47.739Z,98389.44
2022-09-27T07:23:50.598Z,98390.69
2022-09-27T07:26:54.401Z,98395.81
2022-09-27T07:29:56.885Z,98388.25
2022-09-27T07:33:00.254Z,98382.91
2022-09-27T07:36:07.904Z,98382.47
2022-09-27T07:39:10.580Z,98385.63
2022-09-27T07:42:14.377Z,98382.38
2022-09-27T07:45:17.241Z,98386.91
2022-09-27T07:48:19.708Z,98393.81
2022-09-27T07:51:22.816Z,98385.28
2022-09-27T07:54:26.604Z,98389.75
2022-09-27T07:57:30.404Z,98392.59
2022-09-27T08:00:32.970Z,98389.91
2022-09-27T08:03:36.179Z,98388.09
2022-09-27T08:06:38.622Z,98393.69
2022-09-27T08:09:41.094Z,98393.59
2022-09-27T08:12:45.542Z,98385.19
2022-09-27T08:15:48.639Z,98388.69
2022-09-27T08:18:51.104Z,98388.47
2022-09-27T08:21:58.749Z,98391.38
2022-09-27T08:25:01.603Z,98390.44
2022-09-27T08:28:05.950Z,98386.53
2022-09-27T08:31:08.452Z,98389.63
2022-09-27T08:34:10.925Z,98393.63
2022-09-27T08:37:13.371Z,98395.84
2022-09-27T08:40:17.714Z,98389.28
2022-09-27T08:43:36.644Z,98397.06
2022-09-27T08:46:48.888Z,98390.97
2022-09-27T08:49:55.739Z,98394.75
2022-09-27T08:53:01.251Z,98391.53
2022-09-27T08:56:04.577Z,98395.56
2022-09-27T08:59:15.407Z,98397.78
2022-09-27T09:02:19.998Z,98390.44
2022-09-27T09:05:31.232Z,98394.03
2022-09-27T09:08:44.386Z,98389.00
2022-09-27T09:12:18.769Z,98385.63
2022-09-27T09:15:32.828Z,98381.94
2022-09-27T09:18:45.743Z,98379.75
2022-09-27T09:22:00.643Z,98384.16
2022-09-27T09:25:21.097Z,98383.78
2022-09-27T09:28:36.855Z,98391.06
2022-09-27T09:31:44.171Z,98392.13
2022-09-27T09:34:50.216Z,98393.88
2022-09-27T09:37:56.930Z,98399.53
2022-09-27T09:41:04.459Z,98391.84
2022-09-27T09:44:17.200Z,98387.88
2022-09-27T09:47:27.893Z,98387.03
2022-09-27T09:50:36.193Z,98387.72
2022-09-27T09:53:47.990Z,98385.53
2022-09-27T09:56:57.160Z,98386.38
2022-09-27T10:00:03.307Z,98386.50
2022-09-27T10:03:07.292Z,98376.03
2022-09-27T10:06:11.668Z,98383.72
2022-09-27T10:09:16.729Z,98390.03
2022-09-27T10:12:19.458Z,98382.72
2022-09-27T10:15:23.929Z,98387.00
2022-09-27T10:18:28.542Z,98385.75
2022-09-27T10:21:31.208Z,98390.25
2022-09-27T10:24:55.648Z,98387.00
2022-09-27T10:27:58.169Z,98385.63
2022-09-27T10:31:03.196Z,98390.84
2022-09-27T10:34:07.043Z,98381.31
2022-09-27T10:37:18.388Z,98385.78
2022-09-27T10:40:28.587Z,98383.75
2022-09-27T10:43:34.576Z,98377.94
2022-09-27T10:46:37.141Z,98375.53
2022-09-27T10:49:42.981Z,98381.56
2022-09-27T10:52:45.714Z,98370.22
2022-09-27T10:55:50.999Z,98373.84
2022-09-27T10:58:53.803Z,98369.78
2022-09-27T11:01:56.356Z,98369.66
2022-09-27T11:05:15.446Z,98370.53
2022-09-27T11:08:24.356Z,98368.09
2022-09-27T11:11:28.617Z,98381.16
2022-09-27T11:14:32.990Z,98381.41
2022-09-27T11:17:48.996Z,98382.91
2022-09-27T11:21:02.992Z,98380.63
2022-09-27T11:24:22.416Z,98368.59
2022-09-27T11:27:34.036Z,98385.16
2022-09-27T11:30:48.936Z,98366.81
2022-09-27T11:34:12.092Z,98372.75
2022-09-27T11:37:28.432Z,98368.09
2022-09-27T11:40:41.071Z,98361.16
2022-09-27T11:43:56.858Z,98364.34
2022-09-27T11:47:12.082Z,98368.06
2022-09-27T11:50:57.814Z,98367.41
2022-09-27T11:54:14.627Z,98361.50
2022-09-27T11:57:26.365Z,98353.81
2022-09-27T12:00:44.162Z,98353.13
2022-09-27T12:04:13.625Z,98350.91
2022-09-27T12:07:24.434Z,98345.59
2022-09-27T12:10:28.647Z,98354.09
2022-09-27T12:13:37.408Z,98347.66
2022-09-27T12:16:42.865Z,98347.84
2022-09-27T12:19:50.417Z,98341.69
2022-09-27T12:22:59.656Z,98345.84
2022-09-27T12:26:10.300Z,98346.69
2022-09-27T12:29:16.563Z,98350.47
2022-09-27T12:32:24.320Z,98347.44
2022-09-27T12:35:30.446Z,98346.25
2022-09-27T12:38:40.749Z,98349.03
2022-09-27T12:41:49.971Z,98353.88
2022-09-27T12:44:53.414Z,98350.72
2022-09-27T12:48:06.450Z,98344.72
2022-09-27T12:51:11.141Z,98345.19
2022-09-27T12:54:38.281Z,98353.13
2022-09-27T12:57:51.545Z,98363.31
2022-09-27T13:00:59.341Z,98382.50
2022-09-27T13:04:17.929Z,98389.94
2022-09-27T13:07:34.928Z,98383.47
2022-09-27T13:10:49.122Z,98392.25
2022-09-27T13:13:56.227Z,98386.28
2022-09-27T13:16:58.860Z,98391.56
2022-09-27T13:20:42.523Z,98386.19
2022-09-27T13:23:53.956Z,98392.81
2022-09-27T13:26:56.510Z,98389.66
2022-09-27T13:30:47.018Z,98397.88
2022-09-27T13:33:52.609Z,98398.34
2022-09-27T13:36:55.102Z,98410.19
2022-09-27T13:40:12.620Z,98406.31
2022-09-27T13:43:51.247Z,98405.63
2022-09-27T13:46:59.489Z,98400.88
2022-09-27T13:50:15.697Z,98402.53
2022-09-27T13:53:25.078Z,98409.38
2022-09-27T13:56:49.903Z,98401.44
2022-09-27T13:59:58.084Z,98400.44
2022-09-27T14:03:03.471Z,98398.72
2022-09-27T14:06:10.015Z,98401.09
2022-09-27T14:09:20.207Z,98400.63
2022-09-27T14:12:26.219Z,98401.63
2022-09-27T14:15:31.214Z,98399.97
2022-09-27T14:18:35.784Z,98411.34
2022-09-27T14:21:41.601Z,98410.09
2022-09-27T14:24:49.586Z,98408.97
2022-09-27T14:27:52.424Z,98416.56
2022-09-27T14:31:08.836Z,98416.63
2022-09-27T14:34:13.205Z,98414.94
2022-09-27T14:37:27.566Z,98420.16
2022-09-27T14:40:31.793Z,98431.31
2022-09-27T14:43:36.203Z,98424.31
2022-09-27T14:46:38.738Z,98427.91
2022-09-27T14:49:48.307Z,98429.53
2022-09-27T14:52:55.512Z,98430.06
2022-09-27T14:55:59.285Z,98431.06
2022-09-27T14:59:06.518Z,98435.13
2022-09-27T15:02:20.131Z,98432.25
2022-09-27T15:05:25.260Z,98434.28
2022-09-27T15:08:33.469Z,98435.69
2022-09-27T15:11:36.304Z,98438.66
2022-09-27T15:14:41.355Z,98440.09
2022-09-27T15:17:45.384Z,98443.59
2022-09-27T15:20:54.676Z,98444.69
2022-09-27T15:23:58.828Z,98452.03
2022-09-27T15:27:01.384Z,98452.69
2022-09-27T15:30:05.606Z,98458.56
2022-09-27T15:33:19.870Z,98462.16
2022-09-27T15:36:52.205Z,98459.78
2022-09-27T15:39:56.002Z,98466.03
2022-09-27T15:43:00.206Z,98464.97
2022-09-27T15:46:05.125Z,98472.66
2022-09-27T15:49:38.092Z,98471.97
2022-09-27T15:52:43.296Z,98473.09
2022-09-27T15:55:47.108Z,98473.53
2022-09-27T15:58:49.553Z,98473.44
2022-09-27T16:01:56.957Z,98477.78
2022-09-27T16:04:59.477Z,98477.81
2022-09-27T16:08:02.459Z,98477.16
2022-09-27T16:11:06.514Z,98486.53
2022-09-27T16:14:08.984Z,98484.59
2022-09-27T16:17:11.891Z,98489.78
2022-09-27T16:20:19.506Z,98490.66
2022-09-27T16:23:21.977Z,98488.59
2022-09-27T16:26:25.756Z,98498.78
2022-09-27T16:29:28.364Z,98492.38
2022-09-27T16:32:31.067Z,98498.09
2022-09-27T16:35:33.537Z,98493.50
2022-09-27T16:38:35.991Z,98501.88
2022-09-27T16:41:42.238Z,98502.84
2022-09-27T16:44:44.692Z,98504.09
2022-09-27T16:47:47.394Z,98501.72
2022-09-27T16:51:07.514Z,98514.13
2022-09-27T16:54:10.421Z,98516.78
2022-09-27T16:57:14.336Z,98526.13
2022-09-27T17:00:17.558Z,98526.25
2022-09-27T17:03:20.054Z,98531.63
2022-09-27T17:06:23.211Z,98528.84
2022-09-27T17:09:25.903Z,98514.63
2022-09-27T17:12:29.701Z,98522.13
2022-09-27T17:15:32.163Z,98522.00
2022-09-27T17:18:34.675Z,98526.97
2022-09-27T17:21:38.275Z,98528.47
2022-09-27T17:24:40.924Z,98519.03
2022-09-27T17:27:44.693Z,98524.56
2022-09-27T17:30:47.270Z,98518.84
2022-09-27T17:33:56.851Z,98525.94
2022-09-27T17:37:00.802Z,98522.41
2022-09-27T17:40:04.031Z,98529.06
2022-09-27T17:43:07.892Z,98535.13
2022-09-27T17:46:11.334Z,98539.00
2022-09-27T17:49:33.294Z,98541.31
2022-09-27T17:52:35.876Z,98536.63
2022-09-27T17:55:38.390Z,98536.09
2022-09-27T17:58:46.557Z,98539.75
2022-09-27T18:01:49.634Z,98538.66
2022-09-27T18:04:52.185Z,98541.28
2022-09-27T18:07:54.646Z,98540.16
2022-09-27T18:10:57.150Z,98543.78
2022-09-27T18:14:01.599Z,98540.91
2022-09-27T18:17:04.058Z,98551.03
2022-09-27T18:20:08.941Z,98544.75
2022-09-27T18:23:11.384Z,98552.97
2022-09-27T18:26:13.858Z,98559.34
2022-09-27T18:29:19.186Z,98557.81
2022-09-27T18:32:21.674Z,98558.84
2022-09-27T18:35:24.812Z,98565.34
2022-09-27T18:38:27.264Z,98564.38
2022-09-27T18:41:31.866Z,98571.72
2022-09-27T18:44:35.718Z,98575.47
2022-09-27T18:47:38.270Z,98578.25
2022-09-27T18:50:40.844Z,98573.59
2022-09-27T18:53:45.402Z,98576.25
2022-09-27T18:56:49.728Z,98584.28
2022-09-27T18:59:54.431Z,98582.91
2022-09-27T19:02:56.916Z,98582.31
2022-09-27T19:06:01.698Z,98584.25
2022-09-27T19:09:05.210Z,98588.47
2022-09-27T19:12:07.685Z,98587.41
2022-09-27T19:15:11.988Z,98586.13
2022-09-27T19:18:14.464Z,98585.06
2022-09-27T19:21:18.758Z,98595.16
2022-09-27T19:24:21.259Z,98597.31
2022-09-27T19:27:23.999Z,98599.13
2022-09-27T19:30:27.778Z,98599.84
2022-09-27T19:33:30.211Z,98590.50
2022-09-27T19:36:32.677Z,98590.75
2022-09-27T19:39:35.259Z,98597.00
2022-09-27T19:42:37.728Z,98591.13
2022-09-27T19:45:41.917Z,98593.03
2022-09-27T19:48:45.383Z,98595.13
2022-09-27T19:51:47.826Z,98597.66
2022-09-27T19:54:50.259Z,98595.84
2022-09-27T19:57:52.698Z,98599.44
2022-09-27T20:01:01.190Z,98600.63
2022-09-27T20:04:03.959Z,98606.16
2022-09-27T20:07:06.416Z,98608.16
2022-09-27T20:10:09.856Z,98602.53
2022-09-27T20:13:12.313Z,98612.81
2022-09-27T20:16:18.366Z,98606.94
2022-09-27T20:19:20.895Z,98609.81
2022-09-27T20:22:23.410Z,98600.22
2022-09-27T20:25:26.428Z,98610.19
2022-09-27T20:28:28.990Z,98604.78
2022-09-27T20:31:36.847Z,98605.38
2022-09-27T20:34:39.478Z,98611.25
2022-09-27T20:37:41.907Z,98612.22
2022-09-27T20:40:44.465Z,98617.09
2022-09-27T20:43:47.523Z,98607.50
2022-09-27T20:46:51.419Z,98613.72
2022-09-27T20:49:53.961Z,98608.56
2022-09-27T20:52:56.435Z,98614.09
2022-09-27T20:56:02.477Z,98612.06
2022-09-27T20:59:12.725Z,98616.09
2022-09-27T21:02:18.494Z,98619.69
2022-09-27T21:05:21.022Z,98614.41
2022-09-27T21:08:24.406Z,98606.38
2022-09-27T21:11:27.434Z,98617.06
2022-09-27T21:14:29.882Z,98621.78
2022-09-27T21:17:33.632Z,98621.03
2022-09-27T21:20:36.059Z,98623.81
2022-09-27T21:23:44.280Z,98624.78
2022-09-27T21:26:47.546Z,98625.63
2022-09-27T21:29:49.977Z,98632.22
2022-09-27T21:32:56.069Z,98628.47
2022-09-27T21:35:58.902Z,98631.38
2022-09-27T21:39:02.004Z,98626.13
2022-09-27T21:42:04.558Z,98630.44
2022-09-27T21:45:07.859Z,98629.84
2022-09-27T21:48:11.622Z,98636.47
2022-09-27T21:51:15.855Z,98645.09
2022-09-27T21:54:18.322Z,98640.88
2022-09-27T21:57:20.766Z,98643.09
2022-09-27T22:00:23.436Z,98646.28
2022-09-27T22:03:27.312Z,98647.97
2022-09-27T22:06:31.978Z,98642.47
2022-09-27T22:09:34.435Z,98640.06
2022-09-27T22:12:36.867Z,98641.63
2022-09-27T22:15:39.769Z,98640.31
2022-09-27T22:18:46.094Z,98637.81
2022-09-27T22:21:48.681Z,98633.47
2022-09-27T22:24:51.147Z,98632.53
2022-09-27T22:27:53.591Z,98631.94
2022-09-27T22:30:56.114Z,98626.88
2022-09-27T22:34:01.676Z,98629.78
2022-09-27T22:37:04.168Z,98631.59
2022-09-27T22:40:10.293Z,98629.91
2022-09-27T22:43:13.345Z,98631.81
2022-09-27T22:46:16.054Z,98634.81
2022-09-27T22:49:19.926Z,98640.09
2022-09-27T22:52:22.540Z,98635.69
2022-09-27T22:55:25.016Z,98634.38
2022-09-27T22:58:28.074Z,98636.16
2022-09-27T23:01:31.530Z,98633.88
2022-09-27T23:04:35.359Z,98631.34
2022-09-27T23:07:37.804Z,98631.47
2022-09-27T23:10:40.366Z,98634.38
2022-09-27T23:13:44.306Z,98628.00
2022-09-27T23:16:46.825Z,98630.91
2022-09-27T23:19:50.620Z,98637.72
2022-09-27T23:22:53.811Z,98635.56
2022-09-27T23:26:01.077Z,98646.81
2022-09-27T23:29:04.090Z,98641.91
2022-09-27T23:32:07.801Z,98640.13
2022-09-27T23:35:12.323Z,98637.72
2022-09-27T23:38:14.990Z,98630.06
2022-09-27T23:41:18.933Z,98630.91
2022-09-27T23:44:22.718Z,98633.53
2022-09-27T23:47:25.236Z,98635.44
2022-09-27T23:50:29.131Z,98636.03
2022-09-27T23:53:31.912Z,98632.78
2022-09-27T23:56:34.395Z,98629.69
2022-09-27T23:59:38.399Z,98631.25
